Antonia, Missouri
Current Conditions -  °F | °C
As of 12:53 PM on Friday 24 Oct 2014 (Local Time) from KCPS Reporting Station
Clear Clear  
Wind Chill: 67°   Ceiling: Unl
Heat Index: 67°   Visibility: 10mi
Dew Point: 55°   Wind: 5mph
Humidity: 66%   Direction: 240°WSW
Pressure: 30.08"   Gusts: NA
Location:  38.3874°N, 90.4319°W
Report Text: KCPS 241753Z 24004KT 10SM CLR 19/13 A3008 RMK AO2 SLP185 T01940128 10200 20083 58016
Loading
Personal Weather Stations






























Interactive Weather Map New forecast layout! Learn more

10-Day Weather Forecast

Advertisements
Track Severe Weather on mobile